Time;durP1;ratioP1;P1;durP2;ratioP2;P2;SDS_P1;SDS_P2;PMS_P1;PMS_P2;Temp;Humidity;BMP_temperature;BMP_pressure;BME280_temperature;BME280_humidity;BME280_pressure;Samples;Min_cycle;Max_cycle;Signal;HPM_P1;HPM_P2
2021/09/23 07:55:06;;;;;;;22.92;17.88;;;;;;;;;;4881798;29;20056;-81
2021/09/23 07:58:18;;;;;;;25.65;17.50;;;;;;;;;;4880991;29;20045;-83
2021/09/23 08:01:33;;;;;;;21.27;16.50;;;;;;;;;;4884369;29;20061;-83
2021/09/23 08:04:07;;;;;;;22.10;17.70;;;;;;;;;;4879006;29;20033;-82
2021/09/23 08:06:33;;;;;;;27.00;18.60;;;;;;;;;;4889619;29;20031;-82
2021/09/23 08:09:03;;;;;;;28.85;18.63;;;;;;;;;;4878758;29;20128;-82
2021/09/23 08:11:29;;;;;;;24.30;16.67;;;;;;;;;;4875617;29;20025;-82
2021/09/23 08:13:56;;;;;;;24.73;15.15;;;;;;;;;;4874615;29;20613;-81
2021/09/23 08:16:22;;;;;;;17.23;14.10;;;;;;;;;;4867716;29;20030;-81
2021/09/23 08:18:47;;;;;;;18.02;14.10;;;;;;;;;;4886149;29;20116;-81
2021/09/23 08:21:13;;;;;;;20.88;14.10;;;;;;;;;;4875163;29;20038;-82
2021/09/23 08:23:40;;;;;;;24.83;13.98;;;;;;;;;;4872188;29;20049;-81
2021/09/23 08:26:07;;;;;;;18.10;13.73;;;;;;;;;;4873474;29;20026;-82
2021/09/23 08:28:35;;;;;;;18.42;13.90;;;;;;;;;;4870787;29;20033;-81
2021/09/23 08:31:01;;;;;;;19.60;13.13;;;;;;;;;;4870715;29;20033;-81
2021/09/23 08:33:27;;;;;;;17.20;13.85;;;;;;;;;;4854172;29;20044;-81
2021/09/23 08:35:53;;;;;;;17.90;13.13;;;;;;;;;;4884377;29;20033;-81
2021/09/23 08:38:20;;;;;;;21.85;15.05;;;;;;;;;;4871342;29;20033;-81
2021/09/23 08:40:47;;;;;;;19.10;14.23;;;;;;;;;;4869666;29;20106;-81
2021/09/23 08:43:14;;;;;;;19.00;15.50;;;;;;;;;;4866495;29;20104;-81
2021/09/23 08:45:40;;;;;;;22.33;15.07;;;;;;;;;;4881424;29;20040;-81
2021/09/23 08:48:06;;;;;;;19.38;15.15;;;;;;;;;;4865074;29;20029;-81
2021/09/23 08:50:31;;;;;;;23.75;14.90;;;;;;;;;;4879953;29;20081;-81
2021/09/23 08:52:58;;;;;;;18.75;14.30;;;;;;;;;;4866007;29;20029;-81
2021/09/23 08:55:30;;;;;;;21.05;15.25;;;;;;;;;;4866430;29;20041;-81
2021/09/23 08:57:55;;;;;;;;;;;;;;;;;;4865140;29;20034;-81
2021/09/23 09:00:22;;;;;;;17.48;14.73;;;;;;;;;;4881517;29;19991;-81
2021/09/23 09:03:10;;;;;;;19.85;15.05;;;;;;;;;;4878846;29;20077;-81
2021/09/23 09:05:37;;;;;;;19.73;14.00;;;;;;;;;;4879368;29;20045;-81
2021/09/23 09:08:04;;;;;;;22.95;14.60;;;;;;;;;;4864888;29;20029;-81
2021/09/23 09:10:30;;;;;;;18.38;13.63;;;;;;;;;;4864215;29;20399;-80
2021/09/23 09:13:00;;;;;;;17.00;13.43;;;;;;;;;;4862672;29;20032;-81
2021/09/23 09:15:38;;;;;;;15.68;13.27;;;;;;;;;;4877714;29;20034;-80
2021/09/23 09:18:17;;;;;;;15.77;14.02;;;;;;;;;;4863544;29;20021;-81
2021/09/23 09:30:28;;;;;;;18.70;13.25;;;;;;;;;;4923305;29;20035;-85
2021/09/23 09:33:37;;;;;;;19.90;13.65;;;;;;;;;;4921724;29;20061;-84
2021/09/23 10:01:27;;;;;;;13.85;11.63;;;;;;;;;;5418007;23;20052;-84
2021/09/23 10:06:57;;;;;;;14.13;12.18;;;;;;;;;;5297356;23;20051;-85
2021/09/23 10:34:56;;;;;;;10.98;9.88;;;;;;;;;;4934249;29;20055;-83
2021/09/23 10:37:32;;;;;;;10.70;9.05;;;;;;;;;;4928589;29;20084;-84
2021/09/23 10:39:59;;;;;;;14.02;9.95;;;;;;;;;;4923443;29;20548;-82
2021/09/23 10:42:27;;;;;;;11.27;8.88;;;;;;;;;;4938864;29;20040;-83
2021/09/23 10:44:58;;;;;;;10.15;8.68;;;;;;;;;;4938673;29;20013;-84
2021/09/23 10:52:35;;;;;;;12.35;9.30;;;;;;;;;;5106126;23;20051;-83
2021/09/23 10:55:15;;;;;;;11.77;9.02;;;;;;;;;;4948107;28;20090;-83
2021/09/23 10:57:41;;;;;;;10.52;9.10;;;;;;;;;;4955894;29;20099;-84
2021/09/23 11:00:16;;;;;;;10.10;8.88;;;;;;;;;;4952038;29;20004;-84
2021/09/23 11:02:41;;;;;;;11.52;8.98;;;;;;;;;;4945285;29;20028;-82
2021/09/23 11:05:12;;;;;;;9.30;8.40;;;;;;;;;;4939926;29;20095;-82
2021/09/23 11:07:41;;;;;;;11.23;8.90;;;;;;;;;;4935629;29;20044;-82
2021/09/23 11:10:19;;;;;;;10.27;9.20;;;;;;;;;;4946008;28;20044;-82
2021/09/23 11:12:53;;;;;;;15.45;8.45;;;;;;;;;;4938864;29;20039;-82
2021/09/23 11:15:21;;;;;;;10.15;8.20;;;;;;;;;;4941475;29;20492;-83
2021/09/23 11:17:49;;;;;;;9.18;7.65;;;;;;;;;;4936272;29;20090;-83
2021/09/23 11:20:21;;;;;;;8.55;7.75;;;;;;;;;;4939110;29;20019;-82
2021/09/23 11:23:08;;;;;;;9.88;7.82;;;;;;;;;;4946981;28;20034;-83
2021/09/23 11:25:39;;;;;;;8.75;7.82;;;;;;;;;;4947968;29;20038;-82
2021/09/23 11:28:05;;;;;;;12.02;7.88;;;;;;;;;;4950356;29;20408;-82
2021/09/23 11:30:38;;;;;;;9.23;6.85;;;;;;;;;;4954075;28;20036;-83
2021/09/23 11:33:11;;;;;;;10.27;7.07;;;;;;;;;;4951619;29;20036;-84
2021/09/23 11:35:40;;;;;;;11.30;7.38;;;;;;;;;;4949788;29;20031;-83
2021/09/23 11:38:35;;;;;;;8.17;7.00;;;;;;;;;;4948356;29;20051;-83
2021/09/23 11:41:00;;;;;;;12.73;6.45;;;;;;;;;;4952106;29;20038;-83
2021/09/23 11:43:32;;;;;;;7.88;6.22;;;;;;;;;;4957140;28;20051;-83
2021/09/23 11:45:59;;;;;;;16.15;11.68;;;;;;;;;;4949984;29;20484;-82
2021/09/23 11:48:27;;;;;;;8.98;7.20;;;;;;;;;;4950868;29;20035;-82
2021/09/23 11:51:02;;;;;;;7.60;6.78;;;;;;;;;;4939921;28;20032;-82
2021/09/23 11:53:32;;;;;;;7.68;6.28;;;;;;;;;;4934894;29;20071;-82
2021/09/23 11:56:17;;;;;;;6.65;5.80;;;;;;;;;;4937685;29;20083;-83
2021/09/23 11:58:48;;;;;;;7.88;5.57;;;;;;;;;;4935822;29;20088;-83
2021/09/23 12:01:21;;;;;;;5.05;4.55;;;;;;;;;;4938548;29;20012;-85
2021/09/23 12:03:51;;;;;;;5.05;4.55;;;;;;;;;;4941846;29;20027;-83
2021/09/23 12:07:10;;;;;;;5.88;4.07;;;;;;;;;;4938967;29;20110;-84
2021/09/23 12:09:47;;;;;;;5.93;4.15;;;;;;;;;;4939744;29;20043;-83
2021/09/23 12:21:08;;;;;;;8.25;4.30;;;;;;;;;;5770576;23;20052;-83
2021/09/23 12:27:15;;;;;;;4.63;3.75;;;;;;;;;;5512397;23;20040;-82
2021/09/23 13:41:01;;;;;;;3.35;3.05;;;;;;;;;;5310493;23;20099;-81
2021/09/23 13:44:07;;;;;;;4.45;3.30;;;;;;;;;;4959019;28;20024;-83
2021/09/23 13:47:00;;;;;;;4.55;3.30;;;;;;;;;;4876936;29;20041;-81
2021/09/23 13:50:03;;;;;;;3.65;3.00;;;;;;;;;;4902885;29;20049;-81
2021/09/23 13:53:21;;;;;;;2.80;2.60;;;;;;;;;;4898095;29;20024;-81
2021/09/23 13:55:48;;;;;;;5.60;2.65;;;;;;;;;;4899784;29;20045;-78
2021/09/23 13:58:14;;;;;;;3.72;3.20;;;;;;;;;;4871646;29;20404;-79
2021/09/23 14:00:40;;;;;;;6.82;3.25;;;;;;;;;;4878817;29;20032;-81
2021/09/23 14:03:06;;;;;;;3.38;2.80;;;;;;;;;;4877539;29;20506;-83
2021/09/23 14:05:32;;;;;;;4.80;2.80;;;;;;;;;;4877378;29;20048;-82
2021/09/23 14:07:58;;;;;;;3.58;2.78;;;;;;;;;;4861478;29;20061;-82
2021/09/23 14:10:24;;;;;;;3.33;2.80;;;;;;;;;;4877272;29;20090;-83
2021/09/23 14:12:50;;;;;;;4.60;2.97;;;;;;;;;;4877441;29;20032;-83
2021/09/23 14:15:18;;;;;;;3.88;2.85;;;;;;;;;;4877919;29;20032;-82
2021/09/23 14:17:44;;;;;;;2.90;2.60;;;;;;;;;;4877601;29;20068;-84
2021/09/23 14:23:13;;;;;;;4.35;2.63;;;;;;;;;;4902548;29;20118;-79
2021/09/23 14:25:38;;;;;;;4.90;3.20;;;;;;;;;;4936286;29;20469;-84
2021/09/23 14:28:05;;;;;;;3.30;2.80;;;;;;;;;;4935149;29;20031;-83
2021/09/23 14:30:30;;;;;;;3.28;2.92;;;;;;;;;;4935333;29;20042;-82
2021/09/23 14:32:56;;;;;;;4.80;2.95;;;;;;;;;;4935067;29;20110;-82
2021/09/23 14:35:21;;;;;;;3.33;2.70;;;;;;;;;;4934209;29;20035;-81
2021/09/23 14:37:47;;;;;;;3.03;2.72;;;;;;;;;;4935433;29;20153;-84
2021/09/23 14:40:13;;;;;;;4.22;2.65;;;;;;;;;;4934021;29;20107;-85
2021/09/23 14:42:38;;;;;;;4.60;2.80;;;;;;;;;;4933784;29;20091;-85
2021/09/23 14:45:05;;;;;;;2.80;2.60;;;;;;;;;;4935385;29;20449;-85
2021/09/23 14:47:30;;;;;;;3.17;2.88;;;;;;;;;;4934214;29;20032;-83
2021/09/23 14:49:56;;;;;;;5.53;2.78;;;;;;;;;;4934773;29;20385;-83
2021/09/23 14:52:21;;;;;;;2.75;2.55;;;;;;;;;;4933944;29;20118;-83
2021/09/23 14:54:47;;;;;;;4.68;2.50;;;;;;;;;;4935268;29;20086;-83
2021/09/23 14:57:12;;;;;;;2.47;2.22;;;;;;;;;;4934649;29;20047;-82
2021/09/23 14:59:38;;;;;;;3.22;2.40;;;;;;;;;;4934961;29;20023;-82
2021/09/23 15:02:05;;;;;;;4.10;2.72;;;;;;;;;;4935288;29;20028;-82
2021/09/23 15:04:31;;;;;;;2.60;2.40;;;;;;;;;;4931286;29;20058;-83
2021/09/23 15:06:56;;;;;;;2.78;2.33;;;;;;;;;;4925006;29;20032;-83
2021/09/23 15:09:22;;;;;;;2.47;2.28;;;;;;;;;;4922343;29;20087;-83
2021/09/23 15:11:49;;;;;;;2.80;2.28;;;;;;;;;;4916467;29;20549;-83
2021/09/23 15:14:15;;;;;;;2.75;2.17;;;;;;;;;;4918218;29;20066;-83
2021/09/23 15:16:41;;;;;;;4.15;2.50;;;;;;;;;;4935418;29;20036;-83
2021/09/23 15:19:07;;;;;;;2.35;2.13;;;;;;;;;;4935275;29;20027;-82
2021/09/23 15:21:33;;;;;;;2.88;2.33;;;;;;;;;;4935494;29;20059;-85
2021/09/23 15:24:00;;;;;;;4.70;2.10;;;;;;;;;;4934322;29;20031;-85
2021/09/23 15:26:26;;;;;;;2.00;1.90;;;;;;;;;;4916518;29;20028;-84
2021/09/23 15:28:52;;;;;;;2.58;2.30;;;;;;;;;;4919742;29;20028;-84
2021/09/23 15:31:18;;;;;;;4.05;2.08;;;;;;;;;;4935615;29;20035;-84
2021/09/23 15:33:44;;;;;;;5.18;2.15;;;;;;;;;;4934729;29;20063;-84
2021/09/23 15:36:10;;;;;;;3.70;2.03;;;;;;;;;;4916065;29;20062;-84
2021/09/23 15:38:37;;;;;;;3.05;2.10;;;;;;;;;;4944574;29;20035;-84
2021/09/23 15:41:03;;;;;;;4.15;2.15;;;;;;;;;;4938909;29;20060;-83
2021/09/23 15:43:29;;;;;;;3.30;2.13;;;;;;;;;;4934040;29;20704;-84
2021/09/23 15:45:55;;;;;;;3.45;2.00;;;;;;;;;;4933917;29;20036;-84
2021/09/23 15:48:22;;;;;;;2.95;1.80;;;;;;;;;;4928272;29;20086;-84
2021/09/23 15:50:52;;;;;;;3.85;1.88;;;;;;;;;;4937038;29;20043;-85
2021/09/23 15:53:21;;;;;;;3.63;2.05;;;;;;;;;;4935578;29;20032;-85
2021/09/23 15:55:51;;;;;;;3.55;1.90;;;;;;;;;;4939678;28;20031;-85
2021/09/23 15:58:21;;;;;;;2.72;2.25;;;;;;;;;;4940106;29;20042;-87
2021/09/23 16:00:50;;;;;;;2.38;2.08;;;;;;;;;;4927432;29;20036;-84
2021/09/23 16:03:20;;;;;;;2.47;2.28;;;;;;;;;;4926779;29;20024;-86
2021/09/23 16:05:52;;;;;;;5.45;2.80;;;;;;;;;;4921899;29;20068;-85
2021/09/23 16:08:22;;;;;;;6.88;5.28;;;;;;;;;;4922257;29;20039;-84
2021/09/23 16:10:51;;;;;;;5.73;3.20;;;;;;;;;;4919796;29;20119;-83
2021/09/23 16:13:17;;;;;;;;;;;;;;;;;;4919545;29;20052;-84
2021/09/23 16:15:46;;;;;;;4.30;2.20;;;;;;;;;;4919128;29;19918;-86
2021/09/23 16:18:17;;;;;;;2.60;2.00;;;;;;;;;;4922450;29;20028;-83
2021/09/23 16:20:45;;;;;;;3.33;2.85;;;;;;;;;;4928948;29;20070;-85
2021/09/23 16:23:15;;;;;;;14.02;11.48;;;;;;;;;;4923378;29;20596;-84
2021/09/23 16:25:40;;;;;;;10.43;9.38;;;;;;;;;;4926261;29;20024;-82
2021/09/23 16:28:06;;;;;;;6.30;2.25;;;;;;;;;;4926616;29;20079;-83
2021/09/23 16:30:31;;;;;;;6.05;2.88;;;;;;;;;;4930462;29;20046;-83
2021/09/23 16:32:57;;;;;;;10.77;9.85;;;;;;;;;;4919889;29;20028;-83
2021/09/23 16:35:23;;;;;;;3.70;3.40;;;;;;;;;;4918255;29;20547;-83
2021/09/23 16:37:49;;;;;;;4.53;2.75;;;;;;;;;;4916263;29;20063;-83
2021/09/23 16:40:15;;;;;;;3.85;2.70;;;;;;;;;;4935176;29;20472;-83
2021/09/23 16:42:43;;;;;;;2.80;2.40;;;;;;;;;;4931388;29;20040;-82
2021/09/23 16:45:10;;;;;;;3.67;2.25;;;;;;;;;;4916874;29;20402;-83
2021/09/23 16:47:36;;;;;;;4.07;2.40;;;;;;;;;;4916486;29;20032;-83
2021/09/23 16:50:03;;;;;;;3.78;2.40;;;;;;;;;;4918628;29;20082;-83
2021/09/23 16:52:28;;;;;;;5.55;2.50;;;;;;;;;;4923260;29;20051;-83
2021/09/23 16:54:54;;;;;;;5.10;2.80;;;;;;;;;;4922831;29;20028;-83
2021/09/23 16:57:20;;;;;;;5.32;3.00;;;;;;;;;;4922965;29;20035;-83
2021/09/23 16:59:46;;;;;;;3.92;2.60;;;;;;;;;;4932355;29;20118;-84
2021/09/23 17:02:11;;;;;;;5.22;3.30;;;;;;;;;;4921872;29;20098;-84
2021/09/23 17:04:37;;;;;;;5.38;3.28;;;;;;;;;;4934028;29;20031;-85
2021/09/23 17:07:03;;;;;;;4.68;3.42;;;;;;;;;;4922100;29;20427;-84
2021/09/23 17:09:29;;;;;;;6.53;3.42;;;;;;;;;;4918293;29;20020;-85
2021/09/23 17:11:55;;;;;;;4.40;3.33;;;;;;;;;;4917033;29;20038;-84
2021/09/23 17:14:22;;;;;;;4.90;3.40;;;;;;;;;;4937837;29;20027;-85
2021/09/23 17:16:48;;;;;;;4.47;3.00;;;;;;;;;;4937258;29;20074;-84
2021/09/23 17:19:14;;;;;;;6.63;3.05;;;;;;;;;;4934294;29;20051;-84
2021/09/23 17:21:40;;;;;;;5.18;3.10;;;;;;;;;;4932727;28;20181;-85
2021/09/23 17:24:06;;;;;;;5.05;2.95;;;;;;;;;;4934089;29;20111;-85
2021/09/23 17:26:33;;;;;;;4.93;3.17;;;;;;;;;;4925253;29;20495;-85
2021/09/23 17:28:58;;;;;;;9.75;3.53;;;;;;;;;;4933445;28;20031;-84
2021/09/23 17:31:24;;;;;;;5.88;3.17;;;;;;;;;;4932317;28;20498;-83
2021/09/23 17:47:29;;;;;;;;;;;;;;;;;;5077543;23;20071;-81
2021/09/23 17:53:47;;;;;;;5.40;3.03;;;;;;;;;;4268282;27;20048;-82
2021/09/23 17:56:31;;;;;;;5.55;3.50;;;;;;;;;;4904033;29;20089;-82
2021/09/23 17:59:37;;;;;;;4.57;2.83;;;;;;;;;;4917720;29;20485;-83
2021/09/23 18:02:27;;;;;;;4.78;3.22;;;;;;;;;;4868760;29;20046;-83
2021/09/23 18:37:34;;;;;;;5.45;3.53;;;;;;;;;;3539463;23;20026;31
2021/09/23 18:48:58;;;;;;;7.93;3.25;;;;;;;;;;4032549;23;20052;-85
2021/09/23 19:07:27;;;;;;;11.07;3.78;;;;;;;;;;4857730;29;20049;-85
2021/09/23 19:11:08;;;;;;;5.40;3.80;;;;;;;;;;4846358;29;20026;-86
2021/09/23 19:14:26;;;;;;;7.78;3.80;;;;;;;;;;4810831;29;20150;-86
2021/09/23 19:17:33;;;;;;;8.23;3.63;;;;;;;;;;4809561;29;20023;-85
2021/09/23 19:20:49;;;;;;;4.32;3.47;;;;;;;;;;4798887;30;20110;-87
2021/09/23 19:30:09;;;;;;;9.93;4.13;;;;;;;;;;4789854;30;20023;-84
2021/09/23 19:37:05;;;;;;;5.80;3.92;;;;;;;;;;4787373;30;20088;-85
2021/09/23 19:39:53;;;;;;;10.35;4.55;;;;;;;;;;4780627;30;20039;-86
2021/09/23 19:42:29;;;;;;;9.13;4.10;;;;;;;;;;4768113;30;20046;-85
2021/09/23 19:45:43;;;;;;;10.07;3.83;;;;;;;;;;4818311;29;20102;-85
